Time;durP1;ratioP1;P1;durP2;ratioP2;P2;SDS_P1;SDS_P2;PMS_P1;PMS_P2;Temp;Humidity;BMP_temperature;BMP_pressure;BME280_temperature;BME280_humidity;BME280_pressure;Samples;Min_cycle;Max_cycle;Signal;HPM_P1;HPM_P2
2023/10/15 00:00:22;;;;;;;2.03;0.70;;;7.40;99.90;;;;;;5053764;28;20003;-87
2023/10/15 00:02:49;;;;;;;;;;;7.40;99.90;;;;;;5066011;28;20372;-88
2023/10/15 00:05:19;;;;;;;5.17;0.90;;;7.40;99.90;;;;;;5046810;28;20033;-87
2023/10/15 00:07:47;;;;;;;5.85;0.90;;;7.40;99.90;;;;;;5052811;28;20297;-87
2023/10/15 00:10:21;;;;;;;3.95;0.90;;;7.30;99.90;;;;;;5024372;28;20036;-88
2023/10/15 00:12:49;;;;;;;4.00;0.80;;;7.30;99.90;;;;;;5055506;28;20036;-88
2023/10/15 00:15:19;;;;;;;2.70;0.85;;;7.30;99.90;;;;;;5032584;28;20082;-88
2023/10/15 00:17:50;;;;;;;4.55;1.00;;;7.40;99.90;;;;;;5050443;28;20552;-88
2023/10/15 00:20:21;;;;;;;3.67;0.90;;;7.40;99.90;;;;;;5039208;28;20089;-88
2023/10/15 00:22:48;;;;;;;3.22;0.70;;;7.40;99.90;;;;;;5061076;28;20040;-89
2023/10/15 00:25:15;;;;;;;5.30;1.10;;;7.30;99.90;;;;;;5037919;28;20089;-88
2023/10/15 00:27:42;;;;;;;4.88;0.80;;;7.30;99.90;;;;;;5048104;28;20509;-88
2023/10/15 00:30:15;;;;;;;2.80;0.70;;;7.30;99.90;;;;;;5019686;28;20032;-88
2023/10/15 00:32:43;;;;;;;5.75;0.80;;;7.30;99.90;;;;;;5038568;28;20059;-89
2023/10/15 00:35:22;;;;;;;6.22;0.90;;;7.30;99.90;;;;;;5047720;28;20491;-88
2023/10/15 00:37:57;;;;;;;5.22;1.35;;;7.30;99.90;;;;;;5044346;28;20586;-87
2023/10/15 00:40:24;;;;;;;6.70;1.10;;;7.20;99.90;;;;;;5038335;28;20055;-88
2023/10/15 00:42:51;;;;;;;3.00;0.80;;;7.30;99.90;;;;;;5038105;28;20045;-88
2023/10/15 00:45:18;;;;;;;3.88;0.85;;;7.30;99.90;;;;;;5036339;28;20036;-90
2023/10/15 00:47:53;;;;;;;6.43;1.17;;;7.40;99.90;;;;;;5050342;28;20032;-88
2023/10/15 00:50:20;;;;;;;6.00;1.08;;;7.50;99.90;;;;;;5040371;28;20037;-88
2023/10/15 00:52:48;;;;;;;3.65;0.90;;;7.50;99.90;;;;;;5055524;28;20033;-88
2023/10/15 00:55:19;;;;;;;3.30;1.35;;;7.50;99.90;;;;;;5058069;28;20047;-88
2023/10/15 00:57:47;;;;;;;3.65;0.82;;;7.50;99.90;;;;;;5049691;28;20111;-88
2023/10/15 01:02:58;;;;;;;4.40;0.95;;;7.40;99.90;;;;;;5046117;28;20042;-87
2023/10/15 01:05:26;;;;;;;5.03;1.02;;;7.40;99.90;;;;;;5069193;28;20048;-89
2023/10/15 01:07:54;;;;;;;4.25;1.00;;;7.40;99.90;;;;;;5070449;28;20028;-86
2023/10/15 01:10:41;;;;;;;4.53;0.98;;;7.40;99.90;;;;;;5053277;28;20040;-87
2023/10/15 01:13:30;;;;;;;6.53;1.08;;;7.30;99.90;;;;;;5068399;28;20041;-89
2023/10/15 01:16:02;;;;;;;4.50;0.85;;;7.30;99.90;;;;;;5051772;28;20385;-88
2023/10/15 01:18:27;;;;;;;4.63;0.80;;;7.30;99.90;;;;;;5042772;28;20426;-89
2023/10/15 01:20:53;;;;;;;4.93;0.93;;;7.30;99.90;;;;;;5040206;28;20109;-88
2023/10/15 01:26:09;;;;;;;4.03;1.13;;;7.40;99.90;;;;;;5039418;28;20076;-88
2023/10/15 01:28:38;;;;;;;2.30;0.57;;;7.40;99.90;;;;;;5035686;28;20115;-88
2023/10/15 01:31:05;;;;;;;2.55;0.57;;;7.40;99.90;;;;;;5054010;28;20034;-89
2023/10/15 01:33:50;;;;;;;2.85;0.82;;;7.40;99.90;;;;;;5054528;28;20058;-88
2023/10/15 01:36:21;;;;;;;1.67;0.50;;;7.40;99.90;;;;;;5040695;28;20040;-87
2023/10/15 01:38:55;;;;;;;4.50;1.40;;;7.40;99.90;;;;;;5037309;28;20510;-86
2023/10/15 01:41:25;;;;;;;3.92;0.60;;;7.40;99.90;;;;;;5038971;28;20051;-86
2023/10/15 01:43:56;;;;;;;3.63;0.90;;;7.40;99.90;;;;;;5049556;28;20045;-87
2023/10/15 01:49:07;;;;;;;3.55;1.08;;;7.50;99.90;;;;;;5054379;28;20033;-86
2023/10/15 01:51:39;;;;;;;2.72;0.88;;;7.40;99.90;;;;;;5018249;28;20066;-86
2023/10/15 01:54:12;;;;;;;2.65;1.00;;;7.40;99.90;;;;;;5028195;28;20116;-86
2023/10/15 01:56:38;;;;;;;3.08;0.80;;;7.40;99.90;;;;;;5038047;28;20052;-86
2023/10/15 01:59:10;;;;;;;;;;;7.30;99.90;;;;;;5043690;28;20040;-87
2023/10/15 02:01:49;;;;;;;2.70;0.50;;;7.20;99.90;;;;;;5046652;28;19924;-86
2023/10/15 02:04:27;;;;;;;4.63;0.80;;;7.20;99.90;;;;;;5057891;28;20115;-86
2023/10/15 02:06:53;;;;;;;2.35;0.63;;;7.00;99.90;;;;;;5064300;28;20037;-87
2023/10/15 02:09:22;;;;;;;2.47;0.60;;;7.00;99.90;;;;;;5051050;28;20119;-86
2023/10/15 02:11:51;;;;;;;2.72;0.77;;;6.90;99.90;;;;;;5046566;28;20043;-86
2023/10/15 02:14:30;;;;;;;3.95;0.65;;;6.80;99.90;;;;;;5052840;28;20032;-86
2023/10/15 02:16:59;;;;;;;2.72;0.70;;;6.70;99.90;;;;;;5034014;28;20068;-87
2023/10/15 02:19:34;;;;;;;2.95;0.73;;;6.70;99.90;;;;;;5059695;28;20118;-87
2023/10/15 02:22:14;;;;;;;3.10;1.08;;;6.70;99.90;;;;;;5043789;28;20079;-78
2023/10/15 02:24:46;;;;;;;2.05;0.65;;;6.60;99.90;;;;;;5034719;28;20036;-77
2023/10/15 02:27:27;;;;;;;4.25;0.85;;;6.60;99.90;;;;;;5034058;28;20067;-78
2023/10/15 02:29:53;;;;;;;5.00;1.00;;;6.60;99.90;;;;;;5048188;28;20487;-78
2023/10/15 02:34:52;;;;;;;3.80;0.70;;;6.60;99.90;;;;;;5060898;28;20509;-78
2023/10/15 02:37:19;;;;;;;4.88;0.98;;;6.60;99.90;;;;;;5036095;28;20086;-78
2023/10/15 02:39:51;;;;;;;3.78;1.05;;;6.60;99.90;;;;;;5025554;28;20080;-78
2023/10/15 02:42:18;;;;;;;2.85;0.60;;;6.70;99.90;;;;;;5039846;28;20056;-78
2023/10/15 02:44:53;;;;;;;4.28;0.80;;;6.70;99.90;;;;;;5071330;28;20120;-77
2023/10/15 02:47:31;;;;;;;4.10;0.90;;;6.70;99.90;;;;;;5038977;28;20072;-77
2023/10/15 02:50:03;;;;;;;5.18;1.20;;;6.80;99.90;;;;;;5055815;28;20051;-78
2023/10/15 02:52:35;;;;;;;11.50;1.13;;;6.80;99.90;;;;;;5037968;28;20041;-76
2023/10/15 02:55:10;;;;;;;2.80;0.80;;;6.90;99.90;;;;;;5047300;28;20048;-77
2023/10/15 02:57:38;;;;;;;7.50;1.40;;;6.90;99.90;;;;;;5037056;28;20109;-77
2023/10/15 03:00:13;;;;;;;7.75;1.33;;;6.90;99.90;;;;;;5020090;28;20036;-77
2023/10/15 03:02:43;;;;;;;4.78;0.93;;;6.90;99.90;;;;;;5046012;28;20040;-77
2023/10/15 03:05:13;;;;;;;5.75;0.80;;;6.90;99.90;;;;;;5039004;28;20032;-77
2023/10/15 03:07:42;;;;;;;3.55;0.80;;;6.90;99.90;;;;;;5036089;28;20368;-78
2023/10/15 03:10:21;;;;;;;2.72;0.60;;;6.90;99.90;;;;;;5025058;28;20076;-78
2023/10/15 03:12:48;;;;;;;4.22;0.90;;;6.90;99.90;;;;;;5057720;28;20083;-77
2023/10/15 03:15:15;;;;;;;5.25;0.90;;;7.00;99.90;;;;;;5035904;28;20048;-77
2023/10/15 03:17:44;;;;;;;2.47;0.70;;;7.00;99.90;;;;;;5038000;28;20032;-78
2023/10/15 03:22:44;;;;;;;3.90;0.90;;;7.10;99.90;;;;;;5057955;28;20098;-77
2023/10/15 03:25:13;;;;;;;2.88;0.80;;;7.10;99.90;;;;;;5042219;28;20036;-79
2023/10/15 03:27:46;;;;;;;5.07;0.90;;;7.10;99.90;;;;;;5046762;28;20511;-77
2023/10/15 03:30:15;;;;;;;3.10;0.90;;;7.20;99.90;;;;;;5030207;28;20089;-77
2023/10/15 03:32:44;;;;;;;5.13;1.60;;;7.20;99.90;;;;;;5054635;28;20113;-77
2023/10/15 03:35:55;;;;;;;5.55;1.63;;;7.10;99.90;;;;;;5032299;28;20040;-78
2023/10/15 03:38:13;;;;;;;6.70;1.40;;;7.10;99.90;;;;;;5033362;28;20084;-79
2023/10/15 03:40:50;;;;;;;4.18;1.92;;;7.00;99.90;;;;;;5049520;28;20032;-77
2023/10/15 03:43:21;;;;;;;4.40;1.00;;;6.90;99.90;;;;;;5037495;28;20033;-77
2023/10/15 03:45:53;;;;;;;4.13;0.60;;;7.00;99.90;;;;;;5059118;28;20044;-77
2023/10/15 03:48:29;;;;;;;1.77;0.60;;;6.90;99.90;;;;;;5035555;28;20036;-76
2023/10/15 03:50:55;;;;;;;2.90;0.50;;;6.90;99.90;;;;;;5047405;28;20055;-76
2023/10/15 03:53:30;;;;;;;3.55;0.60;;;6.80;99.90;;;;;;5061849;28;20072;-76
2023/10/15 03:56:01;;;;;;;4.18;0.47;;;6.80;99.90;;;;;;5042305;28;20040;-76
2023/10/15 03:58:27;;;;;;;2.85;0.40;;;6.80;99.90;;;;;;5052571;28;20040;-76
2023/10/15 04:01:16;;;;;;;1.42;0.32;;;6.80;99.90;;;;;;5029859;28;20044;-77
2023/10/15 04:03:43;;;;;;;2.92;0.50;;;6.70;99.90;;;;;;5043773;28;20049;-76
2023/10/15 04:06:09;;;;;;;;;;;6.70;99.90;;;;;;5060125;28;20457;-76
2023/10/15 04:08:37;;;;;;;3.00;0.30;;;6.70;99.90;;;;;;5066694;28;19982;-76
2023/10/15 04:11:03;;;;;;;2.38;0.30;;;6.70;99.90;;;;;;5034576;28;20428;-77
2023/10/15 04:13:29;;;;;;;;;;;6.70;99.90;;;;;;5030506;28;20047;-77
2023/10/15 04:15:56;;;;;;;3.00;1.10;;;6.80;99.90;;;;;;5038427;28;19939;-77
2023/10/15 04:18:23;;;;;;;1.70;0.80;;;6.80;99.90;;;;;;5060141;28;20495;-78
2023/10/15 04:20:53;;;;;;;2.45;0.40;;;6.80;99.90;;;;;;5038728;28;20036;-77
2023/10/15 04:23:31;;;;;;;1.27;0.40;;;6.70;99.90;;;;;;5038845;28;20044;-77
2023/10/15 04:26:09;;;;;;;2.38;0.40;;;6.70;99.90;;;;;;5064988;28;20093;-78
2023/10/15 04:28:40;;;;;;;1.02;0.25;;;6.80;99.90;;;;;;5061731;28;20040;-78
2023/10/15 04:31:17;;;;;;;3.72;1.20;;;6.70;99.90;;;;;;5046056;28;20044;-78
2023/10/15 04:33:43;;;;;;;1.98;0.40;;;6.70;99.90;;;;;;5048057;28;20064;-78
2023/10/15 04:36:09;;;;;;;1.52;0.30;;;6.70;99.90;;;;;;5037358;28;20033;-77
2023/10/15 04:38:36;;;;;;;1.98;0.47;;;6.70;99.90;;;;;;5036516;28;20103;-77
2023/10/15 04:41:03;;;;;;;1.23;0.40;;;6.70;99.90;;;;;;5036732;28;20066;-77
2023/10/15 04:43:40;;;;;;;1.60;0.88;;;6.70;99.90;;;;;;5042546;28;20037;-78
2023/10/15 04:46:07;;;;;;;;;;;6.60;99.90;;;;;;5053660;28;20399;-78
2023/10/15 04:48:36;;;;;;;1.80;0.35;;;6.70;99.90;;;;;;5039859;28;19917;-78
2023/10/15 04:51:12;;;;;;;4.57;0.45;;;6.80;99.90;;;;;;5066279;28;20052;-77
2023/10/15 04:53:48;;;;;;;2.87;0.60;;;6.80;99.90;;;;;;5041833;28;20627;-78
2023/10/15 04:56:14;;;;;;;2.50;0.50;;;6.80;99.90;;;;;;5022542;28;20076;-78
2023/10/15 04:58:40;;;;;;;3.40;0.50;;;6.70;99.90;;;;;;5059890;28;20063;-77
2023/10/15 05:01:07;;;;;;;2.38;0.43;;;6.60;99.90;;;;;;5027747;28;20109;-78
2023/10/15 05:03:33;;;;;;;0.82;0.20;;;6.60;99.90;;;;;;5009987;28;20029;-77
2023/10/15 05:06:03;;;;;;;1.85;0.30;;;6.60;99.90;;;;;;5036764;28;20036;-77
2023/10/15 05:08:30;;;;;;;1.20;0.40;;;6.50;99.90;;;;;;5040273;28;20048;-78
2023/10/15 05:10:56;;;;;;;;;;;6.50;99.90;;;;;;5064580;28;20078;-77
2023/10/15 05:13:24;;;;;;;1.65;0.38;;;6.50;99.90;;;;;;5044786;28;20376;-78
2023/10/15 05:15:51;;;;;;;1.70;0.30;;;6.50;99.90;;;;;;5034393;28;20044;-78
2023/10/15 05:18:18;;;;;;;;;;;6.50;99.90;;;;;;5043820;28;20040;-78
2023/10/15 05:20:47;;;;;;;4.15;0.60;;;6.50;99.90;;;;;;5037276;28;19924;-79
2023/10/15 05:23:14;;;;;;;0.88;0.43;;;6.40;99.90;;;;;;5047374;28;20048;-78
2023/10/15 05:25:39;;;;;;;;;;;6.40;99.90;;;;;;5037587;28;20139;-79
2023/10/15 05:28:06;;;;;;;2.47;0.50;;;6.40;99.90;;;;;;5060928;28;20058;-77
2023/10/15 05:30:31;;;;;;;4.68;0.70;;;6.40;99.90;;;;;;5046593;28;21022;-80
2023/10/15 05:33:00;;;;;;;3.53;0.60;;;6.50;99.90;;;;;;5047626;28;20445;-84
2023/10/15 05:35:27;;;;;;;2.85;0.60;;;6.40;99.90;;;;;;5037130;28;20033;-84
2023/10/15 05:37:56;;;;;;;2.10;0.80;;;6.30;99.90;;;;;;5028149;28;20055;-78
2023/10/15 05:40:22;;;;;;;2.90;0.70;;;6.40;99.90;;;;;;5056985;28;20058;-78
2023/10/15 05:42:48;;;;;;;3.30;0.68;;;6.40;99.90;;;;;;5028425;28;20500;-78
2023/10/15 05:45:14;;;;;;;;;;;6.50;99.90;;;;;;5030842;28;20082;-78
2023/10/15 05:47:44;;;;;;;2.90;0.75;;;6.50;99.90;;;;;;5039483;28;19916;-77
2023/10/15 05:50:12;;;;;;;3.70;0.98;;;6.50;99.90;;;;;;5053371;28;20052;-80
2023/10/15 05:52:41;;;;;;;4.82;0.90;;;6.60;99.90;;;;;;5036780;28;20036;-78
2023/10/15 05:55:07;;;;;;;4.63;0.60;;;6.70;99.90;;;;;;5035880;28;20037;-81
2023/10/15 05:57:33;;;;;;;2.75;0.30;;;6.50;99.90;;;;;;5043037;28;20119;-79
2023/10/15 06:00:17;;;;;;;2.05;0.40;;;6.50;99.90;;;;;;5045866;28;20055;-79
2023/10/15 06:02:46;;;;;;;2.28;0.50;;;6.50;99.90;;;;;;5048927;28;20546;-79
2023/10/15 06:05:13;;;;;;;2.13;0.70;;;6.50;99.90;;;;;;5040422;28;20037;-79
2023/10/15 06:07:43;;;;;;;1.88;0.60;;;6.40;99.90;;;;;;5037963;28;20036;-78
2023/10/15 06:10:12;;;;;;;2.80;0.77;;;6.40;99.90;;;;;;5033554;28;20044;-79
2023/10/15 06:12:38;;;;;;;1.58;0.55;;;6.50;99.90;;;;;;5037737;28;20050;-79
2023/10/15 06:15:06;;;;;;;3.75;0.90;;;6.50;99.90;;;;;;5044286;28;20040;-79
2023/10/15 06:17:32;;;;;;;3.85;0.50;;;6.40;99.90;;;;;;5011854;28;20056;-79
2023/10/15 06:19:58;;;;;;;;;;;6.50;99.90;;;;;;5034912;28;20076;-79
2023/10/15 06:22:28;;;;;;;3.38;0.70;;;6.50;99.90;;;;;;5033081;28;19975;-76
2023/10/15 06:24:53;;;;;;;4.75;0.80;;;6.50;99.90;;;;;;5009876;28;20483;-77
2023/10/15 06:27:19;;;;;;;4.93;0.77;;;6.40;99.90;;;;;;5028732;28;20128;-80
2023/10/15 06:29:45;;;;;;;3.42;1.00;;;6.40;99.90;;;;;;5016435;28;20055;-77
2023/10/15 06:32:13;;;;;;;4.53;0.75;;;6.30;99.90;;;;;;4984682;28;20060;-79
2023/10/15 06:34:39;;;;;;;2.95;0.65;;;6.20;99.90;;;;;;4981855;28;20132;-79
2023/10/15 06:37:08;;;;;;;2.38;0.45;;;6.20;99.90;;;;;;5015463;28;20135;-79
2023/10/15 06:39:35;;;;;;;1.58;0.40;;;6.20;99.90;;;;;;4999001;28;21304;-78
2023/10/15 06:42:01;;;;;;;3.45;0.57;;;6.20;99.90;;;;;;4997560;28;20049;-78
2023/10/15 06:44:27;;;;;;;3.67;0.70;;;6.10;99.90;;;;;;5000194;28;20413;-79
2023/10/15 06:46:53;;;;;;;2.42;0.45;;;6.20;99.90;;;;;;4984861;28;20029;-80
2023/10/15 06:49:18;;;;;;;0.65;0.28;;;6.10;99.90;;;;;;5051985;28;20051;-79
2023/10/15 06:51:45;;;;;;;1.23;0.40;;;6.20;99.90;;;;;;5055097;28;20086;-79
2023/10/15 06:54:11;;;;;;;;;;;6.20;99.90;;;;;;5043144;28;20109;-79
2023/10/15 06:56:38;;;;;;;1.25;0.30;;;6.20;99.90;;;;;;5042229;28;19923;-79
2023/10/15 06:59:04;;;;;;;1.20;0.20;;;6.30;99.90;;;;;;5065905;28;20126;-78
2023/10/15 07:01:30;;;;;;;1.38;0.30;;;6.40;99.90;;;;;;5055473;28;20104;-79
2023/10/15 07:03:56;;;;;;;2.50;0.50;;;6.40;99.90;;;;;;5038807;28;20052;-79
2023/10/15 07:06:23;;;;;;;3.90;0.88;;;6.40;99.90;;;;;;5041258;28;20043;-80
2023/10/15 07:08:50;;;;;;;4.05;0.80;;;6.60;99.90;;;;;;5034649;28;20124;-87
2023/10/15 07:11:16;;;;;;;7.90;1.15;;;6.60;99.90;;;;;;5049830;28;20218;-87
2023/10/15 07:13:43;;;;;;;6.88;1.00;;;6.50;99.90;;;;;;5051173;28;20325;-84
2023/10/15 07:16:09;;;;;;;2.22;0.50;;;6.40;99.90;;;;;;5064236;28;20044;-86
2023/10/15 07:18:34;;;;;;;2.78;0.55;;;6.30;99.90;;;;;;5036222;28;20090;-86
2023/10/15 07:21:00;;;;;;;2.83;0.40;;;6.40;99.90;;;;;;5017683;28;20084;-85
2023/10/15 07:23:26;;;;;;;2.72;0.55;;;6.30;99.90;;;;;;5043394;28;20089;-86
2023/10/15 07:25:52;;;;;;;1.58;0.55;;;6.30;99.90;;;;;;5023345;28;20025;-86
2023/10/15 07:28:18;;;;;;;0.82;0.50;;;6.40;99.90;;;;;;5070324;28;20472;-86
2023/10/15 07:30:43;;;;;;;0.95;0.52;;;6.40;99.90;;;;;;5043075;28;20061;-87
2023/10/15 07:33:10;;;;;;;0.82;0.30;;;6.40;99.90;;;;;;5061504;28;20029;-86
2023/10/15 07:35:35;;;;;;;;;;;6.40;99.90;;;;;;5047771;28;20032;-87
2023/10/15 07:38:02;;;;;;;3.33;0.43;;;6.40;99.90;;;;;;5065193;28;20318;-86
2023/10/15 07:40:28;;;;;;;3.55;0.60;;;6.40;99.90;;;;;;5035494;28;20037;-86
2023/10/15 07:42:59;;;;;;;3.03;0.40;;;6.40;99.90;;;;;;5043728;28;20082;-85
2023/10/15 07:45:29;;;;;;;4.90;0.93;;;6.40;99.90;;;;;;5059439;28;20494;-85
2023/10/15 07:48:02;;;;;;;1.20;0.40;;;6.40;99.90;;;;;;5050162;28;20484;-87
2023/10/15 07:50:30;;;;;;;2.08;0.40;;;6.40;99.90;;;;;;5040560;28;20097;-86
2023/10/15 07:52:56;;;;;;;3.65;0.68;;;6.40;99.90;;;;;;5027454;28;20097;-86
2023/10/15 07:55:26;;;;;;;5.80;0.60;;;6.50;99.90;;;;;;5056043;28;20510;-86
2023/10/15 07:57:52;;;;;;;2.95;0.50;;;6.60;99.90;;;;;;5049228;28;20045;-86
2023/10/15 08:00:33;;;;;;;1.30;0.38;;;6.70;99.90;;;;;;5042483;28;20195;-87
2023/10/15 08:02:59;;;;;;;1.65;0.32;;;6.80;99.90;;;;;;5056584;28;20044;-86
2023/10/15 08:05:25;;;;;;;2.95;0.60;;;6.80;99.90;;;;;;5037838;28;20844;-78
2023/10/15 08:07:52;;;;;;;2.08;0.60;;;6.80;99.90;;;;;;5057444;28;20047;-78
2023/10/15 08:10:20;;;;;;;1.80;0.70;;;6.90;99.90;;;;;;5061666;28;20505;-78
2023/10/15 08:12:51;;;;;;;3.42;0.70;;;6.90;99.90;;;;;;5036104;28;20040;-79
2023/10/15 08:15:20;;;;;;;4.70;0.65;;;6.90;99.90;;;;;;5046336;28;20076;-85
2023/10/15 08:17:46;;;;;;;2.55;0.43;;;6.90;99.90;;;;;;5042604;28;20041;-84
2023/10/15 08:20:12;;;;;;;2.90;0.60;;;6.90;99.90;;;;;;5044495;28;20399;-86
2023/10/15 08:22:41;;;;;;;2.33;0.70;;;7.00;99.90;;;;;;5042034;28;20476;-85
2023/10/15 08:25:13;;;;;;;2.55;0.60;;;7.20;99.90;;;;;;5038013;28;20040;-78
2023/10/15 08:27:41;;;;;;;2.58;0.73;;;7.50;99.90;;;;;;5050639;28;20044;-77
2023/10/15 08:30:14;;;;;;;3.05;0.75;;;7.70;99.90;;;;;;5034577;28;20040;-79
2023/10/15 08:32:45;;;;;;;4.32;0.80;;;7.70;99.90;;;;;;5039821;28;20036;-78
2023/10/15 08:35:13;;;;;;;3.65;0.80;;;7.70;99.90;;;;;;5041979;28;20044;-85
2023/10/15 08:37:46;;;;;;;3.75;1.15;;;7.70;99.90;;;;;;5046771;28;20086;-80
2023/10/15 08:40:15;;;;;;;2.50;0.75;;;7.70;99.90;;;;;;5037857;28;20138;-80
2023/10/15 08:42:52;;;;;;;5.18;0.80;;;7.80;99.90;;;;;;5037094;28;20049;-81
2023/10/15 08:45:22;;;;;;;4.38;0.70;;;7.80;99.90;;;;;;5052888;28;20041;-79
2023/10/15 08:47:48;;;;;;;7.10;1.10;;;7.90;99.90;;;;;;5039815;28;20406;-79
2023/10/15 08:50:16;;;;;;;5.43;1.13;;;8.00;99.90;;;;;;5037104;28;20039;-80
2023/10/15 08:52:43;;;;;;;3.25;0.80;;;8.00;99.90;;;;;;5043141;28;20124;-79
2023/10/15 08:55:10;;;;;;;7.95;1.13;;;8.00;99.90;;;;;;5037367;28;20127;-79
2023/10/15 08:57:37;;;;;;;6.80;1.25;;;7.90;99.90;;;;;;5038080;28;20048;-80
2023/10/15 09:00:05;;;;;;;3.08;0.70;;;7.80;99.90;;;;;;5049484;28;20032;-79
2023/10/15 09:02:32;;;;;;;3.78;0.80;;;7.80;99.90;;;;;;5034870;28;20488;-80
2023/10/15 09:04:57;;;;;;;3.88;0.90;;;7.80;99.90;;;;;;5041320;28;20404;-81
2023/10/15 09:07:24;;;;;;;5.95;0.93;;;7.80;99.90;;;;;;5058525;28;20056;-80
2023/10/15 09:09:51;;;;;;;4.78;0.70;;;7.80;99.90;;;;;;5057868;28;20040;-80
2023/10/15 09:12:18;;;;;;;5.25;0.90;;;7.80;99.90;;;;;;5062824;28;20067;-82
2023/10/15 09:14:46;;;;;;;3.50;0.90;;;7.80;99.90;;;;;;5035845;28;20066;-80
2023/10/15 09:17:17;;;;;;;4.10;0.80;;;7.90;99.90;;;;;;5058263;28;20044;-80
2023/10/15 09:19:46;;;;;;;2.90;0.75;;;8.00;99.90;;;;;;5041669;28;20093;-80
2023/10/15 09:22:15;;;;;;;6.45;0.77;;;8.30;99.90;;;;;;5046341;28;20497;-81
2023/10/15 09:24:42;;;;;;;6.50;0.95;;;8.40;99.90;;;;;;5048884;28;20440;-81
2023/10/15 09:27:12;;;;;;;3.65;0.90;;;8.50;99.90;;;;;;5028815;28;20040;-80
2023/10/15 09:29:41;;;;;;;4.53;0.82;;;8.60;99.90;;;;;;5058497;28;20047;-80
2023/10/15 09:32:10;;;;;;;4.50;0.90;;;8.70;99.90;;;;;;5048498;28;20043;-80
2023/10/15 09:34:39;;;;;;;2.72;0.73;;;8.60;99.90;;;;;;5036086;28;20036;-80
2023/10/15 09:37:09;;;;;;;3.20;0.70;;;8.60;99.90;;;;;;5026799;28;20250;-80
2023/10/15 09:39:35;;;;;;;1.45;0.60;;;8.70;99.90;;;;;;5027591;28;20089;-81
2023/10/15 09:42:02;;;;;;;2.50;0.75;;;8.80;99.90;;;;;;5032940;28;20062;-86
2023/10/15 09:44:32;;;;;;;2.28;0.57;;;8.80;99.90;;;;;;5026878;28;20052;-85
2023/10/15 09:46:58;;;;;;;2.90;0.93;;;8.80;99.90;;;;;;5043204;28;20097;-85
2023/10/15 09:49:27;;;;;;;2.17;0.50;;;8.90;99.90;;;;;;5040881;28;20040;-86
2023/10/15 09:51:53;;;;;;;3.38;0.77;;;8.90;99.90;;;;;;5034223;28;20074;-85
2023/10/15 09:54:20;;;;;;;2.78;0.80;;;9.00;99.90;;;;;;5032513;28;20475;-84
2023/10/15 09:56:47;;;;;;;3.33;1.00;;;9.10;99.90;;;;;;5052279;28;20051;-83
2023/10/15 09:59:17;;;;;;;4.88;1.00;;;9.10;99.90;;;;;;5063635;28;20087;-88
2023/10/15 10:01:54;;;;;;;1.95;0.50;;;9.30;99.90;;;;;;5027311;28;20041;-89
2023/10/15 10:05:05;;;;;;;4.30;0.80;;;9.30;99.90;;;;;;5040084;28;20072;-89
2023/10/15 10:08:21;;;;;;;4.55;1.13;;;9.50;99.90;;;;;;4977333;28;20039;-88
2023/10/15 10:11:05;;;;;;;3.10;0.90;;;9.70;99.90;;;;;;4898593;29;20048;-84
2023/10/15 10:13:42;;;;;;;4.65;0.82;;;10.10;99.90;;;;;;5031276;28;20067;-89
2023/10/15 10:16:43;;;;;;;4.30;0.98;;;10.30;99.90;;;;;;5055946;28;20040;-88
2023/10/15 10:19:10;;;;;;;7.88;1.70;;;10.10;99.90;;;;;;5064464;28;20399;-90
2023/10/15 10:21:36;;;;;;;;;;;9.70;99.90;;;;;;5064623;28;20044;-89
2023/10/15 10:24:12;;;;;;;4.68;0.90;;;9.50;99.90;;;;;;5030966;28;19920;-90
2023/10/15 10:26:41;;;;;;;4.35;1.08;;;9.40;99.90;;;;;;5069561;28;20115;-88
2023/10/15 10:29:12;;;;;;;2.72;0.63;;;9.30;99.90;;;;;;5035653;28;20063;-89
2023/10/15 10:31:41;;;;;;;1.13;0.60;;;9.60;99.90;;;;;;5046039;28;20036;-89
2023/10/15 10:34:06;;;;;;;3.97;0.80;;;9.90;99.90;;;;;;5056260;28;20045;-89
2023/10/15 10:36:38;;;;;;;0.77;0.35;;;10.20;81.30;;;;;;5021263;28;20041;-90
2023/10/15 10:39:13;;;;;;;1.48;0.32;;;10.30;1.00;;;;;;5041052;28;20123;-87
2023/10/15 10:41:40;;;;;;;1.27;0.35;;;10.70;77.00;;;;;;5043255;28;20114;-87
2023/10/15 10:44:24;;;;;;;2.70;0.50;;;10.90;90.40;;;;;;5043491;28;20055;-86
2023/10/15 10:46:54;;;;;;;1.65;0.50;;;11.00;1.00;;;;;;5059022;28;20036;-88
2023/10/15 10:49:40;;;;;;;3.50;0.70;;;11.20;1.00;;;;;;5029996;28;20044;-86
2023/10/15 10:52:17;;;;;;;3.70;0.85;;;11.20;33.90;;;;;;5044636;28;20071;-80
2023/10/15 10:54:43;;;;;;;;;;;10.80;27.00;;;;;;5058133;28;20066;-80
2023/10/15 10:57:09;;;;;;;2.45;0.68;;;10.10;46.00;;;;;;5039404;28;19916;-81
2023/10/15 10:59:37;;;;;;;;;;;9.60;42.90;;;;;;5059664;28;20480;-80
2023/10/15 11:02:05;;;;;;;2.08;0.60;;;9.40;99.90;;;;;;5055691;28;19932;-80
2023/10/15 11:04:31;;;;;;;1.52;0.75;;;9.20;99.90;;;;;;5058584;28;20047;-80
2023/10/15 11:06:58;;;;;;;2.65;0.70;;;9.10;99.90;;;;;;5068080;28;20040;-80
2023/10/15 11:09:25;;;;;;;2.22;0.47;;;9.10;99.90;;;;;;5039345;28;20048;-80
2023/10/15 11:11:57;;;;;;;4.70;1.00;;;9.10;99.90;;;;;;5042273;28;20391;-80
2023/10/15 11:14:27;;;;;;;6.00;1.02;;;9.50;99.90;;;;;;5039254;28;20450;-81
2023/10/15 11:16:55;;;;;;;4.18;1.00;;;9.90;99.90;;;;;;5040319;28;20043;-80
2023/10/15 11:19:26;;;;;;;4.35;1.10;;;10.40;99.90;;;;;;5059352;28;20036;-80
2023/10/15 11:21:52;;;;;;;1.95;0.75;;;10.70;99.90;;;;;;5051577;28;20840;-80
2023/10/15 11:24:20;;;;;;;3.58;1.10;;;10.80;99.90;;;;;;5060754;28;20040;-81
2023/10/15 11:26:46;;;;;;;4.10;1.50;;;11.00;93.70;;;;;;5047683;28;20044;-81
2023/10/15 11:29:14;;;;;;;4.03;1.00;;;11.30;99.90;;;;;;5014887;28;20105;-81
2023/10/15 11:31:44;;;;;;;3.38;0.90;;;11.70;99.90;;;;;;5047490;28;20123;-81
2023/10/15 11:34:17;;;;;;;3.72;1.20;;;12.10;73.40;;;;;;5067040;28;20109;-81
2023/10/15 11:36:44;;;;;;;3.72;1.00;;;12.20;1.00;;;;;;5061838;28;21365;-88
2023/10/15 11:39:38;;;;;;;6.13;0.93;;;12.20;32.00;;;;;;5040982;28;20047;-88
2023/10/15 11:42:06;;;;;;;5.30;1.08;;;11.90;26.70;;;;;;5070974;28;20044;-79
2023/10/15 11:44:32;;;;;;;6.53;1.08;;;11.30;1.00;;;;;;5064673;28;20040;-80
2023/10/15 11:47:08;;;;;;;3.75;0.90;;;11.00;1.00;;;;;;5067115;28;20062;-79
2023/10/15 11:49:35;;;;;;;;;;;10.80;21.60;;;;;;5057686;28;20122;-79
2023/10/15 11:52:05;;;;;;;2.75;0.73;;;10.60;1.00;;;;;;5040092;28;19916;-79
2023/10/15 11:54:31;;;;;;;5.05;1.27;;;10.50;1.00;;;;;;5037590;28;20040;-79
2023/10/15 11:57:04;;;;;;;5.68;0.77;;;10.50;1.00;;;;;;5043752;28;20047;-80
2023/10/15 11:59:31;;;;;;;4.65;0.90;;;10.60;99.90;;;;;;5053071;28;20047;-81
2023/10/15 12:02:01;;;;;;;3.13;0.70;;;10.40;99.90;;;;;;5057928;28;20059;-78
2023/10/15 12:04:28;;;;;;;5.32;0.90;;;10.50;99.90;;;;;;5043645;28;20075;-80
2023/10/15 12:06:53;;;;;;;5.50;1.20;;;10.60;99.90;;;;;;5029370;28;20029;-81
2023/10/15 12:09:31;;;;;;;4.22;1.05;;;10.90;99.90;;;;;;5058553;28;20395;-81
2023/10/15 12:11:59;;;;;;;3.22;0.90;;;10.80;99.90;;;;;;5038344;28;20373;-82
2023/10/15 12:14:25;;;;;;;5.10;1.00;;;10.60;99.90;;;;;;5059360;28;20032;-80
2023/10/15 12:16:51;;;;;;;5.43;1.13;;;10.80;1.00;;;;;;5052724;28;20052;-84
2023/10/15 12:19:17;;;;;;;7.20;1.08;;;11.10;1.00;;;;;;5052099;28;20040;-78
2023/10/15 12:21:43;;;;;;;;;;;11.10;1.00;;;;;;5039855;28;20076;-83
2023/10/15 12:24:09;;;;;;;5.28;1.30;;;11.40;1.00;;;;;;5047644;28;20292;-83
2023/10/15 12:26:35;;;;;;;6.57;1.45;;;11.20;99.90;;;;;;5052474;28;20531;-82
2023/10/15 12:29:05;;;;;;;;;;;11.60;1.00;;;;;;5044144;28;20093;-82
2023/10/15 12:31:32;;;;;;;4.65;1.15;;;11.70;99.90;;;;;;5056393;28;19926;-82
2023/10/15 12:34:00;;;;;;;;;;;11.80;99.90;;;;;;5037916;28;20047;-82
2023/10/15 12:36:26;;;;;;;4.55;1.10;;;11.90;99.90;;;;;;5043098;28;20363;-82
2023/10/15 12:38:52;;;;;;;6.60;1.33;;;11.90;99.90;;;;;;5037719;28;20488;-82
2023/10/15 12:41:21;;;;;;;3.17;0.82;;;12.00;1.00;;;;;;5037400;28;20060;-81
2023/10/15 12:43:49;;;;;;;4.13;0.93;;;12.10;1.00;;;;;;5037541;28;20149;-83
2023/10/15 12:46:16;;;;;;;3.75;0.73;;;11.80;99.90;;;;;;5017446;28;20617;-81
2023/10/15 12:48:43;;;;;;;3.72;0.60;;;11.90;99.90;;;;;;5049058;28;20041;-81
2023/10/15 12:51:10;;;;;;;2.38;0.70;;;12.00;99.90;;;;;;5043074;28;20049;-81
2023/10/15 12:53:36;;;;;;;2.90;0.50;;;12.10;99.90;;;;;;5021238;28;20391;-81
2023/10/15 12:56:01;;;;;;;1.90;0.40;;;12.10;99.90;;;;;;5032259;28;20131;-81
2023/10/15 12:58:27;;;;;;;3.70;0.68;;;11.80;1.00;;;;;;5036157;28;20047;-81
2023/10/15 13:00:53;;;;;;;3.50;0.60;;;11.50;99.90;;;;;;5020398;28;20036;-81
2023/10/15 13:03:19;;;;;;;2.72;0.70;;;11.20;99.90;;;;;;5049251;28;20123;-81
2023/10/15 13:05:45;;;;;;;2.10;0.75;;;10.90;99.90;;;;;;5020701;28;20472;-81
2023/10/15 13:08:11;;;;;;;3.80;0.70;;;10.80;1.00;;;;;;5050452;28;20121;-80
2023/10/15 13:10:37;;;;;;;3.47;0.88;;;10.70;1.00;;;;;;5062123;28;20598;-81
2023/10/15 13:13:03;;;;;;;3.28;0.82;;;10.60;99.90;;;;;;5050547;28;20042;-87
2023/10/15 13:15:29;;;;;;;3.97;0.90;;;10.50;1.00;;;;;;5044602;28;20032;-87
2023/10/15 13:17:55;;;;;;;3.83;0.93;;;10.20;1.00;;;;;;5037237;28;20468;-88
2023/10/15 13:20:23;;;;;;;4.10;1.25;;;10.30;1.00;;;;;;5034773;28;20036;-87
2023/10/15 13:22:49;;;;;;;5.75;1.35;;;10.80;1.00;;;;;;5029625;28;20040;-88
2023/10/15 13:25:15;;;;;;;3.15;0.90;;;11.00;99.90;;;;;;5035186;28;20055;-88